Time;durP1;ratioP1;P1;durP2;ratioP2;P2;SDS_P1;SDS_P2;PMS_P1;PMS_P2;Temp;Humidity;BMP_temperature;BMP_pressure;BME280_temperature;BME280_humidity;BME280_pressure;Samples;Min_cycle;Max_cycle;Signal;HPM_P1;HPM_P2
2022/02/27 00:00:12;;;;;;;8.57;3.70;;;1.90;1.00;;;;;;5052359;28;20291;-76
2022/02/27 00:02:38;;;;;;;14.77;3.88;;;1.80;1.00;;;;;;5052518;28;20195;-76
2022/02/27 00:05:04;;;;;;;7.13;3.40;;;1.80;1.00;;;;;;5053313;28;20585;-76
2022/02/27 00:07:30;;;;;;;10.80;4.13;;;;;;;;;;5053507;28;20247;-76
2022/02/27 00:09:55;;;;;;;10.05;4.07;;;1.70;1.00;;;;;;5053419;28;20879;-76
2022/02/27 00:12:21;;;;;;;9.47;4.00;;;;;;;;;;5053415;28;20190;-76
2022/02/27 00:14:47;;;;;;;10.95;3.70;;;;;;;;;;5053033;28;20538;-76
2022/02/27 00:17:16;;;;;;;10.27;3.80;;;1.50;1.00;;;;;;5048534;28;20176;-74
2022/02/27 00:19:42;;;;;;;13.10;4.45;;;1.50;1.00;;;;;;5053017;28;20474;-76
2022/02/27 00:22:08;;;;;;;7.07;4.03;;;;;;;;;;5053260;28;20656;-76
2022/02/27 00:24:34;;;;;;;10.33;4.47;;;;;;;;;;5053143;28;20183;-76
2022/02/27 00:26:59;;;;;;;7.38;4.40;;;1.30;1.00;;;;;;5053201;28;20851;-76
2022/02/27 00:29:25;;;;;;;9.17;3.63;;;1.30;1.00;;;;;;5051730;28;20172;-76
2022/02/27 00:31:51;;;;;;;10.30;3.93;;;1.20;1.00;;;;;;5053142;28;20538;-76
2022/02/27 00:34:16;;;;;;;9.60;3.93;;;1.20;1.00;;;;;;5052838;28;20178;-74
2022/02/27 00:36:42;;;;;;;8.37;4.00;;;1.10;1.00;;;;;;5051807;28;20262;-75
2022/02/27 00:39:07;;;;;;;11.47;4.50;;;1.10;1.00;;;;;;5052346;28;20283;-74
2022/02/27 00:41:33;;;;;;;14.30;4.03;;;1.00;1.00;;;;;;5052590;28;20163;-75
2022/02/27 00:43:59;;;;;;;15.00;4.37;;;1.00;1.00;;;;;;5052229;28;20175;-74
2022/02/27 00:46:25;;;;;;;5.55;3.60;;;0.90;1.00;;;;;;5052761;28;20178;-74
2022/02/27 00:48:51;;;;;;;21.43;4.83;;;0.90;1.00;;;;;;5051750;28;20262;-76
2022/02/27 00:51:17;;;;;;;8.07;4.35;;;0.90;1.00;;;;;;5052757;28;20191;-76
2022/02/27 00:53:43;;;;;;;7.00;4.40;;;0.80;1.00;;;;;;5052777;28;20170;-76
2022/02/27 00:56:08;;;;;;;7.87;4.27;;;0.80;1.00;;;;;;5052548;28;20976;-76
2022/02/27 00:58:34;;;;;;;20.63;3.90;;;;;;;;;;5052580;28;20175;-76
2022/02/27 01:01:00;;;;;;;10.73;4.70;;;-0.70;1.00;;;;;;5052859;28;20167;-76
2022/02/27 01:03:26;;;;;;;8.97;4.50;;;0.70;1.00;;;;;;5052388;28;20500;-76
2022/02/27 01:05:55;;;;;;;9.67;4.17;;;0.70;1.00;;;;;;5052451;28;20216;-76
2022/02/27 01:08:20;;;;;;;10.27;3.40;;;0.60;1.00;;;;;;5052498;28;20175;-76
2022/02/27 01:10:46;;;;;;;6.87;3.97;;;0.50;1.00;;;;;;5052661;28;20527;-76
2022/02/27 01:13:11;;;;;;;18.60;4.83;;;0.50;1.00;;;;;;5052697;28;20152;-77
2022/02/27 01:15:37;;;;;;;7.07;5.30;;;;;;;;;;5052610;28;20696;-76
2022/02/27 01:18:03;;;;;;;10.30;4.97;;;0.50;1.00;;;;;;5052674;28;20243;-74
2022/02/27 01:20:29;;;;;;;11.17;6.13;;;0.50;1.00;;;;;;5052477;28;20434;-74
2022/02/27 01:22:54;;;;;;;12.13;7.00;;;0.40;1.00;;;;;;5052345;28;20229;-75
2022/02/27 01:25:20;;;;;;;15.13;6.60;;;0.40;1.00;;;;;;5052094;28;20505;-75
2022/02/27 01:27:45;;;;;;;14.23;6.17;;;0.40;1.00;;;;;;5052037;28;20187;-74
2022/02/27 01:30:11;;;;;;;13.90;7.00;;;0.40;1.00;;;;;;5051236;28;20176;-74
2022/02/27 01:32:37;;;;;;;18.13;7.30;;;0.40;1.00;;;;;;5052345;28;20265;-74
2022/02/27 01:35:06;;;;;;;15.35;7.00;;;0.50;1.00;;;;;;5052612;28;20176;-76
2022/02/27 01:37:33;;;;;;;20.20;7.65;;;0.30;1.00;;;;;;5052349;28;20168;-76
2022/02/27 01:39:58;;;;;;;13.65;7.60;;;0.30;1.00;;;;;;5052168;28;20183;-76
2022/02/27 01:42:24;;;;;;;11.37;6.97;;;0.30;1.00;;;;;;5052084;28;20195;-76
2022/02/27 01:44:50;;;;;;;13.83;6.70;;;0.30;1.00;;;;;;5051840;28;20176;-76
2022/02/27 01:47:15;;;;;;;8.80;5.90;;;0.20;1.00;;;;;;5052216;28;20176;-76
2022/02/27 01:49:47;;;;;;;18.53;6.40;;;0.20;1.00;;;;;;5052673;28;20207;-74
2022/02/27 01:52:13;;;;;;;15.02;6.65;;;0.20;1.00;;;;;;5051923;28;20183;-74
2022/02/27 01:54:39;;;;;;;11.90;7.03;;;0.20;1.00;;;;;;5051957;28;20659;-74
2022/02/27 01:57:05;;;;;;;15.03;5.80;;;0.20;1.00;;;;;;5052118;28;20175;-74
2022/02/27 01:59:31;;;;;;;12.73;6.30;;;0.20;1.00;;;;;;5052084;28;20226;-74
2022/02/27 02:01:56;;;;;;;14.57;6.60;;;0.20;1.00;;;;;;5050731;28;20184;-75
2022/02/27 02:04:22;;;;;;;12.07;6.17;;;;;;;;;;5052351;28;20426;-74
2022/02/27 02:06:48;;;;;;;12.00;6.75;;;0.10;1.00;;;;;;5051886;28;20651;-74
2022/02/27 02:09:14;;;;;;;22.00;5.97;;;0.10;1.00;;;;;;5051828;28;20156;-75
2022/02/27 02:11:40;;;;;;;16.17;5.90;;;;;;;;;;5051109;28;20176;-74
2022/02/27 02:14:06;;;;;;;17.20;6.50;;;0.00;1.00;;;;;;5052135;28;20420;-74
2022/02/27 02:16:44;;;;;;;11.30;6.57;;;0.00;1.00;;;;;;5055427;28;20200;-74
2022/02/27 02:19:10;;;;;;;8.75;5.90;;;0.00;1.00;;;;;;5055666;28;20528;-76
2022/02/27 02:21:41;;;;;;;11.38;5.85;;;-0.10;1.00;;;;;;5055787;28;20172;-77
2022/02/27 02:24:08;;;;;;;16.10;6.05;;;-0.10;1.00;;;;;;5055236;28;20164;-77
2022/02/27 02:26:36;;;;;;;13.23;6.30;;;-0.10;1.00;;;;;;5055531;28;20251;-77
2022/02/27 02:29:07;;;;;;;19.35;6.65;;;-0.10;1.00;;;;;;5055309;28;20172;-78
2022/02/27 02:31:34;;;;;;;12.02;5.60;;;-0.20;1.00;;;;;;5055478;28;20156;-77
2022/02/27 02:34:07;;;;;;;12.30;6.47;;;-0.20;1.00;;;;;;5055226;28;20221;-77
2022/02/27 02:36:33;;;;;;;15.15;6.55;;;-0.20;1.00;;;;;;5055140;28;20184;-77
2022/02/27 02:38:59;;;;;;;17.30;6.03;;;;;;;;;;5054752;28;20529;-77
2022/02/27 02:41:26;;;;;;;17.13;6.35;;;-0.30;1.00;;;;;;5055194;28;20156;-77
2022/02/27 02:43:51;;;;;;;15.32;5.78;;;-0.30;1.00;;;;;;5054913;28;20221;-77
2022/02/27 02:46:17;;;;;;;7.20;5.13;;;-0.30;1.00;;;;;;5055330;28;20242;-77
2022/02/27 02:48:43;;;;;;;13.07;5.63;;;;;;;;;;5055404;28;20175;-76
2022/02/27 02:51:09;;;;;;;11.50;5.53;;;;;;;;;;5054462;28;20215;-77
2022/02/27 02:53:37;;;;;;;12.43;4.95;;;-0.40;1.00;;;;;;5053970;28;20434;-77
2022/02/27 02:56:05;;;;;;;8.02;4.80;;;-0.40;1.00;;;;;;5055241;28;20164;-77
2022/02/27 02:58:32;;;;;;;6.35;4.72;;;-0.40;1.00;;;;;;5055022;28;20156;-77
2022/02/27 03:00:58;;;;;;;11.50;5.70;;;;;;;;;;5054840;28;20203;-77
2022/02/27 03:03:24;;;;;;;13.57;5.40;;;-0.50;1.00;;;;;;5054507;28;20183;-77
2022/02/27 03:05:50;;;;;;;14.10;5.40;;;;;;;;;;5055325;28;20160;-74
2022/02/27 03:08:16;;;;;;;11.87;5.60;;;;;;;;;;5054540;28;20171;-75
2022/02/27 03:10:41;;;;;;;16.43;5.30;;;-0.50;1.00;;;;;;5054500;28;20453;-74
2022/02/27 03:13:13;;;;;;;10.30;5.90;;;-0.60;1.00;;;;;;5054517;28;20529;-74
2022/02/27 03:15:39;;;;;;;14.52;5.10;;;-0.60;1.00;;;;;;5054190;28;20264;-74
2022/02/27 03:18:05;;;;;;;12.95;4.90;;;-0.60;1.00;;;;;;5054230;28;20179;-74
2022/02/27 03:20:31;;;;;;;8.90;4.40;;;-0.60;1.00;;;;;;5054678;28;20677;-74
2022/02/27 03:22:56;;;;;;;9.43;5.17;;;-0.60;1.00;;;;;;5054190;28;20839;-74
2022/02/27 03:25:22;;;;;;;8.40;4.60;;;-0.60;1.00;;;;;;5053908;28;20476;-74
2022/02/27 03:27:49;;;;;;;17.53;5.43;;;-0.60;1.00;;;;;;5053976;28;20528;-74
2022/02/27 03:30:15;;;;;;;10.35;5.88;;;-0.60;1.00;;;;;;5052877;28;20209;-74
2022/02/27 03:32:46;;;;;;;11.85;5.75;;;-0.60;1.00;;;;;;5053768;28;20176;-74
2022/02/27 03:35:13;;;;;;;9.00;5.20;;;-0.60;1.00;;;;;;5054422;28;20152;-74
2022/02/27 03:37:38;;;;;;;9.80;5.50;;;-0.60;1.00;;;;;;5052541;28;20186;-74
2022/02/27 03:40:05;;;;;;;11.50;5.30;;;-0.60;1.00;;;;;;5053800;28;20548;-74
2022/02/27 03:42:31;;;;;;;7.82;4.72;;;-0.60;1.00;;;;;;5052573;28;20628;-75
2022/02/27 03:44:56;;;;;;;17.45;5.60;;;-0.60;1.00;;;;;;5053404;28;20187;-74
2022/02/27 03:47:22;;;;;;;14.10;5.90;;;-0.60;1.00;;;;;;5053791;28;20180;-74
2022/02/27 03:49:48;;;;;;;13.00;6.37;;;-0.60;1.00;;;;;;5054026;28;20678;-77
2022/02/27 03:52:13;;;;;;;10.93;4.50;;;-0.60;1.00;;;;;;5053758;28;20246;-77
2022/02/27 03:54:39;;;;;;;9.10;4.20;;;-0.50;1.00;;;;;;5053924;28;20167;-77
2022/02/27 03:57:05;;;;;;;13.10;5.17;;;;;;;;;;5052386;28;20203;-77
2022/02/27 03:59:31;;;;;;;10.32;4.75;;;-0.60;1.00;;;;;;5053633;28;20278;-77
2022/02/27 04:01:57;;;;;;;8.40;4.63;;;;;;;;;;5053529;28;20251;-77
2022/02/27 04:04:22;;;;;;;9.00;4.47;;;-0.60;1.00;;;;;;5053962;28;20164;-74
2022/02/27 04:06:48;;;;;;;10.17;5.13;;;-0.60;1.00;;;;;;5053680;28;20434;-74
2022/02/27 04:09:14;;;;;;;9.33;4.43;;;;;;;;;;5053205;28;20191;-74
2022/02/27 04:11:39;;;;;;;10.10;5.40;;;-0.60;1.00;;;;;;5053303;28;20238;-74
2022/02/27 04:14:05;;;;;;;8.67;5.37;;;-0.60;1.00;;;;;;5052150;28;20410;-74
2022/02/27 04:16:30;;;;;;;9.77;4.37;;;-0.60;1.00;;;;;;5053084;28;20171;-74
2022/02/27 04:18:56;;;;;;;14.67;4.67;;;;;;;;;;5052974;28;20183;-74
2022/02/27 04:21:22;;;;;;;7.90;4.40;;;;;;;;;;5053738;28;20735;-77
2022/02/27 04:23:48;;;;;;;16.63;4.97;;;-0.70;1.00;;;;;;5053146;28;20407;-77
2022/02/27 04:26:14;;;;;;;14.23;5.23;;;-0.70;1.00;;;;;;5053328;28;20178;-77
2022/02/27 04:28:39;;;;;;;12.10;4.60;;;-0.70;1.00;;;;;;5053337;28;20222;-77
2022/02/27 04:31:05;;;;;;;8.93;4.00;;;-0.70;1.00;;;;;;5053167;28;20179;-77
2022/02/27 04:33:31;;;;;;;10.03;4.50;;;-0.70;1.00;;;;;;5052887;28;20183;-77
2022/02/27 04:35:56;;;;;;;9.83;4.57;;;-0.70;1.00;;;;;;5053113;28;20417;-77
2022/02/27 04:38:22;;;;;;;9.53;4.27;;;;;;;;;;5051921;28;20206;-77
2022/02/27 04:40:48;;;;;;;8.02;4.70;;;-0.70;1.00;;;;;;5052805;28;20223;-77
2022/02/27 04:43:14;;;;;;;7.60;4.37;;;-0.70;1.00;;;;;;5053052;28;20222;-77
2022/02/27 04:45:40;;;;;;;9.23;4.50;;;;;;;;;;5052646;28;20233;-77
2022/02/27 04:48:05;;;;;;;12.57;3.97;;;-0.70;1.00;;;;;;5053089;28;20175;-77
2022/02/27 04:50:31;;;;;;;10.57;4.20;;;-0.70;1.00;;;;;;5053325;28;20528;-75
2022/02/27 04:52:57;;;;;;;9.35;4.53;;;-0.70;1.00;;;;;;5052648;28;20174;-74
2022/02/27 04:55:23;;;;;;;8.00;4.20;;;;;;;;;;5052329;28;20176;-75
2022/02/27 04:57:49;;;;;;;7.38;3.85;;;-0.80;1.00;;;;;;5051222;28;20206;-75
2022/02/27 05:00:15;;;;;;;10.33;4.37;;;-0.80;1.00;;;;;;5051907;28;20668;-74
2022/02/27 05:02:40;;;;;;;14.50;3.85;;;-0.80;1.00;;;;;;5051342;28;20502;-74
2022/02/27 05:05:07;;;;;;;3.80;3.40;;;-0.80;1.00;;;;;;5052883;28;20176;-74
2022/02/27 05:07:33;;;;;;;7.65;4.35;;;-0.80;1.00;;;;;;5052678;28;20260;-74
2022/02/27 05:09:58;;;;;;;10.00;4.13;;;-0.80;1.00;;;;;;5052125;28;20278;-74
2022/02/27 05:12:24;;;;;;;8.73;4.13;;;-0.80;1.00;;;;;;5052669;28;20175;-74
2022/02/27 05:14:49;;;;;;;10.00;4.10;;;-0.80;1.00;;;;;;5052481;28;20175;-74
2022/02/27 05:17:15;;;;;;;12.30;3.90;;;;;;;;;;5052623;28;20734;-74
2022/02/27 05:19:41;;;;;;;11.30;4.40;;;;;;;;;;5052163;28;20219;-74
2022/02/27 05:22:07;;;;;;;7.53;3.57;;;;;;;;;;5053062;28;20493;-77
2022/02/27 05:24:33;;;;;;;8.40;3.73;;;;;;;;;;5052368;28;20733;-77
2022/02/27 05:26:59;;;;;;;9.65;3.75;;;-0.80;1.00;;;;;;5051391;28;20417;-77
2022/02/27 05:29:25;;;;;;;6.70;3.77;;;;;;;;;;5052383;28;20172;-78
2022/02/27 05:31:51;;;;;;;6.97;4.10;;;;;;;;;;5052096;28;20698;-77
2022/02/27 05:34:18;;;;;;;12.60;4.93;;;;;;;;;;5052402;28;20440;-77
2022/02/27 05:36:44;;;;;;;9.02;4.35;;;-0.80;1.00;;;;;;5052708;28;20477;-77
2022/02/27 05:39:10;;;;;;;7.40;4.33;;;-0.80;1.00;;;;;;5051764;28;20271;-77
2022/02/27 05:41:37;;;;;;;6.10;4.13;;;-0.90;1.00;;;;;;5052434;28;20203;-77
2022/02/27 05:44:02;;;;;;;9.32;4.18;;;-0.90;1.00;;;;;;5051906;28;20168;-77
2022/02/27 05:46:28;;;;;;;12.93;4.10;;;-0.90;1.00;;;;;;5052213;28;20317;-77
2022/02/27 05:48:54;;;;;;;6.40;3.90;;;;;;;;;;5053909;28;20156;-77
2022/02/27 05:51:20;;;;;;;10.50;4.53;;;;;;;;;;5055656;28;20598;-74
2022/02/27 05:53:46;;;;;;;8.05;4.07;;;-1.00;1.00;;;;;;5056121;28;20432;-74
2022/02/27 05:56:14;;;;;;;6.00;4.03;;;;;;;;;;5054619;28;20624;-74
2022/02/27 05:58:40;;;;;;;8.25;4.40;;;;;;;;;;5055771;28;20152;-74
2022/02/27 06:01:06;;;;;;;5.60;4.32;;;;;;;;;;5055136;28;20321;-74
2022/02/27 06:03:32;;;;;;;7.53;4.28;;;;;;;;;;5055815;28;20168;-74
2022/02/27 06:05:58;;;;;;;11.63;4.35;;;;;;;;;;5036616;28;20168;-77
2022/02/27 06:08:24;;;;;;;8.83;4.63;;;;;;;;;;5035910;28;20250;-77
2022/02/27 06:10:50;;;;;;;14.23;4.80;;;;;;;;;;5054491;28;20425;-77
2022/02/27 06:13:16;;;;;;;7.20;4.25;;;;;;;;;;5055635;28;20410;-77
2022/02/27 06:15:42;;;;;;;10.40;4.70;;;;;;;;;;5055198;28;20583;-77
2022/02/27 06:18:07;;;;;;;10.82;5.00;;;-1.00;1.00;;;;;;5055735;28;20478;-77
2022/02/27 06:20:33;;;;;;;8.23;4.20;;;;;;;;;;5055459;28;20207;-76
2022/02/27 06:22:59;;;;;;;7.50;4.40;;;;;;;;;;5054253;28;20175;-77
2022/02/27 06:25:25;;;;;;;7.80;4.30;;;-1.00;1.00;;;;;;5054211;28;20765;-77
2022/02/27 06:27:51;;;;;;;9.23;4.53;;;;;;;;;;5055191;28;20164;-77
2022/02/27 06:30:19;;;;;;;10.02;4.32;;;-1.00;1.00;;;;;;5055616;28;20156;-77
2022/02/27 06:32:47;;;;;;;7.35;4.05;;;-0.90;1.00;;;;;;5053856;28;20180;-77
2022/02/27 06:35:14;;;;;;;8.20;4.13;;;-0.90;1.00;;;;;;5087450;28;20210;-77
2022/02/27 06:37:40;;;;;;;6.32;4.05;;;-0.90;1.00;;;;;;5055474;28;20254;-77
2022/02/27 06:40:10;;;;;;;11.70;4.80;;;-0.90;1.00;;;;;;5055018;28;20723;-77
2022/02/27 06:42:37;;;;;;;7.07;4.35;;;-0.90;1.00;;;;;;5054704;28;20168;-77
2022/02/27 06:45:04;;;;;;;6.93;4.65;;;-0.80;1.00;;;;;;5054702;28;20245;-77
2022/02/27 06:47:31;;;;;;;5.18;3.85;;;-0.80;1.00;;;;;;5055159;28;20317;-77
2022/02/27 06:50:02;;;;;;;8.93;4.22;;;-0.80;1.00;;;;;;5055003;28;20193;-77
2022/02/27 06:52:28;;;;;;;7.93;4.47;;;-0.80;1.00;;;;;;5055030;28;20196;-74
2022/02/27 06:54:54;;;;;;;8.50;4.67;;;;;;;;;;5054898;28;20172;-74
2022/02/27 06:57:20;;;;;;;13.07;4.37;;;;;;;;;;5054728;28;20176;-74
2022/02/27 06:59:45;;;;;;;8.10;4.20;;;-0.70;1.00;;;;;;5053973;28;20486;-74
2022/02/27 07:02:12;;;;;;;8.93;4.70;;;;;;;;;;5054372;28;20403;-74
2022/02/27 07:04:38;;;;;;;20.83;5.10;;;-0.50;1.00;;;;;;5054801;28;20554;-74
2022/02/27 07:07:04;;;;;;;5.80;3.80;;;;;;;;;;5054977;28;20181;-77
2022/02/27 07:09:30;;;;;;;9.05;4.32;;;-0.40;1.00;;;;;;5054708;28;20159;-77
2022/02/27 07:11:56;;;;;;;15.50;4.83;;;;;;;;;;5054327;28;20175;-77
2022/02/27 07:14:22;;;;;;;11.33;4.63;;;-0.30;1.00;;;;;;5054172;28;20249;-77
2022/02/27 07:16:47;;;;;;;6.83;4.47;;;-0.20;1.00;;;;;;5053274;28;20430;-77
2022/02/27 07:19:14;;;;;;;8.47;4.37;;;;;;;;;;5054605;28;20973;-77
2022/02/27 07:21:39;;;;;;;14.20;5.45;;;0.00;1.00;;;;;;5054946;28;20395;-74
2022/02/27 07:24:05;;;;;;;10.00;4.57;;;0.10;1.00;;;;;;5053002;28;20543;-74
2022/02/27 07:26:31;;;;;;;10.77;4.82;;;0.20;1.00;;;;;;5054012;28;20168;-74
2022/02/27 07:28:57;;;;;;;8.57;4.33;;;;;;;;;;5054362;28;20179;-75
2022/02/27 07:31:23;;;;;;;12.70;4.80;;;;;;;;;;5054635;28;20477;-75
2022/02/27 07:33:50;;;;;;;13.35;6.00;;;0.40;1.00;;;;;;5054056;28;20419;-75
2022/02/27 07:36:16;;;;;;;10.30;5.32;;;0.50;1.00;;;;;;5052401;28;20176;-75
2022/02/27 07:38:42;;;;;;;15.75;5.05;;;0.70;1.00;;;;;;5053612;28;20168;-75
2022/02/27 07:41:08;;;;;;;10.97;5.03;;;;;;;;;;5052698;28;20192;-75
2022/02/27 07:43:34;;;;;;;10.73;5.43;;;;;;;;;;5053238;28;20235;-75
2022/02/27 07:46:00;;;;;;;11.37;5.67;;;;;;;;;;5053468;28;20414;-74
2022/02/27 07:48:28;;;;;;;11.80;5.75;;;1.10;1.00;;;;;;5053389;28;20418;-75
2022/02/27 07:50:54;;;;;;;10.75;5.20;;;1.20;1.00;;;;;;5053691;28;20187;-75
2022/02/27 07:53:20;;;;;;;13.07;5.77;;;1.40;1.00;;;;;;5053894;28;20188;-75
2022/02/27 07:55:45;;;;;;;9.50;5.63;;;1.40;1.00;;;;;;5053533;28;20168;-75
2022/02/27 07:58:12;;;;;;;11.30;5.10;;;1.50;1.00;;;;;;5053499;28;20171;-75
2022/02/27 08:00:38;;;;;;;14.52;5.95;;;1.70;1.00;;;;;;5053168;28;20191;-75
2022/02/27 08:03:04;;;;;;;15.40;5.50;;;;;;;;;;5053564;28;20175;-75
2022/02/27 08:05:30;;;;;;;13.07;5.63;;;;;;;;;;5053191;28;20188;-75
2022/02/27 08:07:57;;;;;;;13.67;5.73;;;;;;;;;;5053391;28;20794;-77
2022/02/27 08:10:23;;;;;;;8.20;5.05;;;2.40;1.00;;;;;;5053581;28;20754;-77
2022/02/27 08:12:49;;;;;;;9.33;5.07;;;;;;;;;;5053404;28;20172;-77
2022/02/27 08:15:16;;;;;;;17.80;6.07;;;2.40;1.00;;;;;;5053407;28;20188;-77
2022/02/27 08:17:42;;;;;;;16.95;5.18;;;2.50;1.00;;;;;;5053137;28;20203;-78
2022/02/27 08:20:09;;;;;;;10.17;4.80;;;2.60;1.00;;;;;;5053339;28;20226;-78
2022/02/27 08:22:37;;;;;;;8.88;4.00;;;2.90;1.00;;;;;;5053863;28;20906;-78
2022/02/27 08:25:04;;;;;;;9.02;4.18;;;2.90;1.00;;;;;;5052821;28;20179;-77
2022/02/27 08:27:29;;;;;;;10.02;3.72;;;3.00;1.00;;;;;;5084862;28;20229;-78
2022/02/27 08:29:55;;;;;;;13.73;5.43;;;3.10;1.00;;;;;;5053246;28;20180;-78
2022/02/27 08:32:21;;;;;;;15.07;4.57;;;3.20;1.00;;;;;;5040131;28;20172;-78
2022/02/27 08:34:46;;;;;;;13.20;3.83;;;3.50;1.00;;;;;;5052829;28;20183;-78
2022/02/27 08:37:12;;;;;;;10.13;4.40;;;3.60;1.00;;;;;;5052707;28;20598;-77
2022/02/27 08:39:38;;;;;;;7.50;3.90;;;5.00;1.00;;;;;;5052501;28;20183;-77
2022/02/27 08:42:04;;;;;;;8.20;3.72;;;3.70;1.00;;;;;;5053062;28;20187;-77
2022/02/27 08:44:33;;;;;;;6.40;3.20;;;4.00;1.00;;;;;;5052504;28;20207;-80
2022/02/27 08:47:04;;;;;;;9.25;4.05;;;4.00;1.00;;;;;;5053171;28;20643;-78
2022/02/27 08:49:30;;;;;;;10.18;4.40;;;4.00;1.00;;;;;;5052743;28;20206;-78
2022/02/27 08:51:57;;;;;;;9.90;4.00;;;4.20;1.00;;;;;;5053081;28;20203;-77
2022/02/27 08:54:23;;;;;;;6.63;3.77;;;4.20;1.00;;;;;;5052893;28;20446;-77
2022/02/27 08:56:49;;;;;;;6.80;3.40;;;4.30;1.00;;;;;;5052824;28;20422;-77
2022/02/27 08:59:15;;;;;;;9.23;3.87;;;4.40;1.00;;;;;;5052590;28;20973;-77
2022/02/27 09:01:41;;;;;;;10.33;5.50;;;4.50;1.00;;;;;;5052514;28;20176;-77
2022/02/27 09:04:07;;;;;;;7.30;3.70;;;;;;;;;;5052539;28;20168;-77
2022/02/27 09:06:33;;;;;;;7.50;3.70;;;4.60;1.00;;;;;;5052251;28;20487;-77
2022/02/27 09:08:59;;;;;;;6.33;3.30;;;4.70;1.00;;;;;;5052832;28;20921;-75
2022/02/27 09:11:25;;;;;;;14.67;3.50;;;4.80;1.00;;;;;;5052016;28;20270;-76
2022/02/27 09:13:51;;;;;;;6.70;3.63;;;;;;;;;;5055445;28;20267;-76
2022/02/27 09:16:16;;;;;;;8.17;3.83;;;5.10;1.00;;;;;;5052600;28;20453;-76
2022/02/27 09:18:42;;;;;;;7.27;3.60;;;5.10;1.00;;;;;;5052592;28;20708;-76
2022/02/27 09:21:08;;;;;;;6.30;3.30;;;5.20;1.00;;;;;;5046678;28;20218;-76
2022/02/27 09:23:35;;;;;;;6.93;3.67;;;5.30;1.00;;;;;;5052318;28;20187;-76
2022/02/27 09:26:02;;;;;;;7.47;3.70;;;5.40;1.00;;;;;;5056661;28;21005;-76
2022/02/27 09:28:28;;;;;;;5.77;3.83;;;5.30;1.00;;;;;;5056793;28;20552;-76
2022/02/27 09:30:55;;;;;;;10.80;3.90;;;5.40;1.00;;;;;;5056485;28;20420;-76
2022/02/27 09:33:22;;;;;;;12.43;3.90;;;5.40;1.00;;;;;;5056465;28;20505;-76
2022/02/27 09:35:49;;;;;;;6.33;3.40;;;5.50;1.00;;;;;;5056584;28;20490;-76
2022/02/27 09:38:16;;;;;;;9.30;3.17;;;5.60;1.00;;;;;;5056866;28;20412;-75
2022/02/27 09:40:42;;;;;;;5.87;3.07;;;5.60;1.00;;;;;;5056209;28;20495;-75
2022/02/27 09:43:08;;;;;;;10.10;4.00;;;5.60;1.00;;;;;;5056336;28;20492;-75
2022/02/27 09:45:34;;;;;;;10.50;3.63;;;5.70;1.00;;;;;;5055969;28;20390;-76
2022/02/27 09:48:00;;;;;;;13.23;3.70;;;5.80;1.00;;;;;;5056723;28;20804;-76
2022/02/27 09:50:27;;;;;;;13.03;3.57;;;5.80;1.00;;;;;;5055716;28;20438;-76
2022/02/27 09:52:53;;;;;;;4.70;3.30;;;6.10;1.00;;;;;;5055922;28;20433;-76
2022/02/27 09:55:19;;;;;;;6.93;3.60;;;6.20;1.00;;;;;;5056021;28;20473;-76
2022/02/27 09:57:46;;;;;;;4.40;3.17;;;6.20;1.00;;;;;;5053000;28;20537;-76
2022/02/27 10:00:19;;;;;;;7.10;3.30;;;6.20;1.00;;;;;;5088130;28;20882;-76
2022/02/27 10:03:13;;;;;;;4.73;3.40;;;6.30;1.00;;;;;;5055589;28;20505;-76
2022/02/27 10:05:44;;;;;;;5.77;3.27;;;6.40;1.00;;;;;;5055903;28;20883;-76
2022/02/27 10:08:10;;;;;;;8.73;3.67;;;6.50;1.00;;;;;;5056096;28;20402;-77
2022/02/27 10:10:39;;;;;;;8.73;3.63;;;6.60;1.00;;;;;;5055472;28;20422;-77
2022/02/27 10:13:06;;;;;;;7.53;3.57;;;6.60;1.00;;;;;;5054400;28;20835;-77
2022/02/27 10:15:37;;;;;;;8.87;3.77;;;6.80;1.00;;;;;;5055815;28;20409;-77
2022/02/27 10:18:14;;;;;;;5.60;3.00;;;6.90;1.00;;;;;;5055382;28;20504;-77
2022/02/27 10:20:40;;;;;;;7.47;3.90;;;6.90;1.00;;;;;;5055538;28;20445;-77
2022/02/27 10:23:06;;;;;;;9.53;3.60;;;7.00;1.00;;;;;;5055454;28;20446;-77
2022/02/27 10:25:32;;;;;;;11.30;3.10;;;;;;;;;;5055470;28;20441;-75
2022/02/27 10:28:02;;;;;;;6.77;2.90;;;7.10;1.00;;;;;;5055727;28;20571;-76
2022/02/27 10:30:38;;;;;;;5.40;3.03;;;7.20;1.00;;;;;;5055443;28;20921;-76
2022/02/27 10:33:05;;;;;;;6.40;3.40;;;7.90;1.00;;;;;;5040827;28;20824;-76
2022/02/27 10:35:39;;;;;;;7.33;3.70;;;8.30;1.00;;;;;;5053964;28;20403;-76
2022/02/27 10:38:32;;;;;;;4.80;2.97;;;7.60;1.00;;;;;;5055714;28;20483;-76
2022/02/27 10:40:57;;;;;;;4.50;3.30;;;7.30;1.00;;;;;;5050448;28;20465;-76
2022/02/27 10:43:23;;;;;;;11.40;3.93;;;8.50;1.00;;;;;;5055136;28;20480;-76
2022/02/27 10:46:03;;;;;;;5.67;3.40;;;7.50;1.00;;;;;;5054630;28;20179;-76
2022/02/27 10:48:31;;;;;;;11.50;3.73;;;7.60;1.00;;;;;;5055221;28;20179;-77
2022/02/27 10:51:05;;;;;;;5.13;3.10;;;7.70;1.00;;;;;;5054936;28;20454;-77
2022/02/27 10:53:36;;;;;;;5.80;3.70;;;7.90;1.00;;;;;;5055120;28;20421;-76
2022/02/27 10:56:08;;;;;;;10.17;3.07;;;7.90;1.00;;;;;;5054943;28;20453;-76
2022/02/27 10:58:45;;;;;;;5.27;3.40;;;7.90;1.00;;;;;;5054786;28;20452;-76
2022/02/27 11:01:21;;;;;;;6.53;3.00;;;8.10;1.00;;;;;;5054917;28;20492;-76
2022/02/27 11:03:49;;;;;;;3.73;3.13;;;8.10;1.00;;;;;;5054954;28;20394;-76
2022/02/27 11:06:15;;;;;;;6.43;3.03;;;8.10;1.00;;;;;;5054626;28;20426;-76
2022/02/27 11:08:42;;;;;;;3.93;2.60;;;8.40;1.00;;;;;;5055163;28;20409;-76
2022/02/27 11:11:10;;;;;;;5.10;2.80;;;8.60;1.00;;;;;;5054741;28;20481;-76
2022/02/27 11:13:36;;;;;;;4.63;3.07;;;9.30;1.00;;;;;;5054855;28;20410;-77
2022/02/27 11:16:02;;;;;;;4.27;2.53;;;8.80;1.00;;;;;;5054600;28;20405;-76
2022/02/27 11:18:29;;;;;;;2.70;2.50;;;8.80;1.00;;;;;;5054558;28;20556;-76
2022/02/27 11:20:56;;;;;;;6.50;3.07;;;8.80;1.00;;;;;;5054598;28;20454;-76
2022/02/27 11:23:22;;;;;;;5.00;2.70;;;9.00;1.00;;;;;;5054849;28;20403;-75
2022/02/27 11:25:48;;;;;;;4.80;2.63;;;9.10;1.00;;;;;;5054346;28;20397;-76
2022/02/27 11:28:25;;;;;;;4.27;2.90;;;9.10;1.00;;;;;;5055482;28;20460;-75
2022/02/27 11:30:58;;;;;;;3.97;2.60;;;9.10;1.00;;;;;;5055388;28;20816;-75
2022/02/27 11:33:24;;;;;;;4.53;2.30;;;9.20;1.00;;;;;;5055420;28;20460;-75
2022/02/27 11:36:02;;;;;;;4.10;2.53;;;9.20;1.00;;;;;;5055431;28;20405;-75
2022/02/27 11:38:30;;;;;;;3.10;2.00;;;9.20;1.00;;;;;;5055428;28;20398;-76
2022/02/27 11:41:14;;;;;;;4.90;2.10;;;9.20;1.00;;;;;;5054511;28;20565;-76
2022/02/27 11:43:57;;;;;;;10.27;2.63;;;9.30;1.00;;;;;;5053728;28;20909;-76
2022/02/27 11:47:01;;;;;;;3.07;2.40;;;9.30;1.00;;;;;;5054827;28;21000;-76
2022/02/27 11:49:27;;;;;;;6.43;2.60;;;9.10;1.00;;;;;;5054878;28;20409;-76
2022/02/27 11:52:06;;;;;;;6.63;2.80;;;9.30;1.00;;;;;;5054843;28;20453;-76
2022/02/27 11:54:45;;;;;;;2.60;2.30;;;9.40;1.00;;;;;;5055203;28;20164;-75
2022/02/27 11:57:21;;;;;;;5.13;2.50;;;9.50;1.00;;;;;;5054151;28;20437;-75
2022/02/27 12:00:09;;;;;;;2.83;2.53;;;9.50;1.00;;;;;;5046818;28;20548;-75
2022/02/27 12:02:39;;;;;;;2.97;2.40;;;9.80;1.00;;;;;;5034618;28;20417;-76
2022/02/27 12:05:19;;;;;;;3.23;2.47;;;9.80;1.00;;;;;;5034614;28;20423;-76
2022/02/27 12:07:58;;;;;;;4.53;2.53;;;10.00;1.00;;;;;;5066745;28;20381;-78
2022/02/27 12:14:05;;;;;;;2.40;2.20;;;10.20;1.00;;;;;;5034480;28;20469;-79
2022/02/27 12:16:47;;;;;;;4.50;2.60;;;10.20;1.00;;;;;;5036575;28;20412;-79
2022/02/27 12:20:01;;;;;;;2.60;2.37;;;10.40;1.00;;;;;;5053516;28;20820;-79
2022/02/27 12:22:42;;;;;;;5.33;2.30;;;10.20;1.00;;;;;;5052714;28;20398;-74
2022/02/27 12:25:08;;;;;;;3.67;2.30;;;10.20;1.00;;;;;;5046139;28;21028;-74
2022/02/27 12:27:40;;;;;;;4.37;2.00;;;10.30;99.90;;;;;;5053672;28;20509;-75
2022/02/27 12:30:17;;;;;;;4.50;2.60;;;10.20;99.90;;;;;;5053815;28;22152;-75
2022/02/27 12:32:43;;;;;;;5.73;2.73;;;10.20;1.00;;;;;;5053684;28;20929;-76
2022/02/27 12:35:09;;;;;;;2.77;2.40;;;;;;;;;;5053685;28;20414;-76
2022/02/27 12:37:35;;;;;;;6.80;2.50;;;10.20;1.00;;;;;;5053906;28;20492;-76
2022/02/27 12:40:01;;;;;;;5.77;2.73;;;10.20;1.00;;;;;;5053626;28;20556;-76
2022/02/27 12:42:33;;;;;;;5.40;2.27;;;10.20;1.00;;;;;;5053750;28;20258;-76
2022/02/27 12:44:59;;;;;;;3.63;2.23;;;10.20;99.90;;;;;;5053820;28;20390;-76
2022/02/27 12:47:26;;;;;;;3.93;2.30;;;10.20;99.90;;;;;;5054048;28;20432;-76
2022/02/27 12:50:21;;;;;;;14.77;2.63;;;10.40;1.00;;;;;;5053625;28;20279;-76
2022/02/27 12:52:47;;;;;;;5.10;2.33;;;10.20;99.90;;;;;;5034072;28;20743;-76
2022/02/27 12:55:19;;;;;;;4.27;2.47;;;10.30;99.90;;;;;;5034070;28;20479;-78
2022/02/27 12:57:58;;;;;;;6.73;2.70;;;10.00;99.90;;;;;;5033404;28;20377;-78
2022/02/27 13:00:42;;;;;;;4.10;2.43;;;9.90;99.90;;;;;;5037752;28;21004;-78
2022/02/27 13:03:17;;;;;;;4.67;2.77;;;10.10;1.00;;;;;;5034114;28;20400;-78
2022/02/27 13:06:07;;;;;;;2.90;2.10;;;10.30;99.90;;;;;;5059885;28;21081;-79
2022/02/27 13:08:56;;;;;;;4.03;2.40;;;10.40;99.90;;;;;;5073558;28;20390;-78
2022/02/27 13:11:49;;;;;;;2.80;2.20;;;10.30;99.90;;;;;;5073709;28;20416;-78
2022/02/27 13:14:15;;;;;;;6.30;2.10;;;10.20;99.90;;;;;;5033417;28;20418;-79
2022/02/27 13:16:50;;;;;;;2.40;1.90;;;10.20;99.90;;;;;;5033448;28;20395;-78
2022/02/27 13:19:31;;;;;;;4.30;2.10;;;10.20;99.90;;;;;;5033416;28;20156;-78
2022/02/27 13:22:04;;;;;;;3.40;2.47;;;10.30;99.90;;;;;;5033468;28;20434;-79